METAR Data
IDs: Format: Raw Decoded Include TAF

Data at: 1513 UTC 10 Aug 2022

KSAV 101453Z 24011KT 9SM FEW024 OVC250 30/23 A3021 RMK AO2 SLP230 T03000228 50002
KSAV 101353Z 22009KT 10SM FEW020 OVC250 28/23 A3021 RMK AO2 SLP230 T02830233
KSAV 101253Z 19003KT 10SM FEW120 OVC250 27/22 A3021 RMK AO2 SLP230 T02670217
KSAV 101153Z 00000KT 10SM FEW040 OVC250 25/21 A3021 RMK AO2 SLP228 T02500211 10250 20228 53014
KSAV 101053Z 00000KT 10SM BKN250 23/21 A3019 RMK AO2 SLP222 T02280211
KSAV 100953Z 00000KT 10SM FEW025 FEW090 BKN250 23/21 A3017 RMK AO2 SLP216 T02280206
KSAV 100853Z AUTO 00000KT 10SM CLR 23/21 A3017 RMK AO2 SLP214 T02280206 55001
KSAV 100753Z AUTO 00000KT 10SM CLR 23/21 A3016 RMK AO2 SLP211 T02330211
KSAV 100653Z AUTO 00000KT 10SM CLR 24/21 A3017 RMK AO2 SLP215 T02390211
KSAV 100553Z AUTO 00000KT 10SM CLR 24/21 A3017 RMK AO2 SLP215 T02440211 10283 20239 50003
KSAV 100453Z AUTO 23005KT 10SM CLR 24/22 A3018 RMK AO2 SLP218 T02440217 403330228
KSAV 100353Z 00000KT 10SM SCT120 BKN180 BKN250 26/22 A3016 RMK AO2 SLP212 LAST T02560222
KSAV 100253Z 24005KT 10SM FEW040 SCT120 BKN180 BKN250 27/23 A3016 RMK AO2 SLP213 T02670233 53014
KSAV 100153Z 20004KT 10SM SCT060 BKN120 BKN180 27/23 A3015 RMK AO2 SLP207 T02720233
KSAV 100053Z 18006KT 10SM SCT120 BKN150 BKN250 27/23 A3013 RMK AO2 SLP201 T02720228
KSAV 092353Z 18006KT 10SM FEW045 FEW120 BKN160 BKN250 28/23 A3012 RMK AO2 SLP199 T02830228 10333 20283 53009
KSAV 092253Z 17013KT 10SM FEW045 SCT120 BKN160 29/22 A3009 RMK AO2 SLP189 T02940222
KSAV 092153Z 17012KT 10SM FEW050 BKN075 BKN120 31/22 A3010 RMK AO2 LTG DSNT N AND SW SLP193 T03060222
KSAV 092053Z 16015KT 10SM FEW055 SCT080 BKN120 32/22 A3009 RMK AO2 SLP189 T03170222 56020
KSAV 091953Z 15011KT 10SM FEW050 SCT080 BKN120 33/23 A3010 RMK AO2 SLP192 T03280228
KSAV 091853Z 16008KT 130V190 10SM SCT049 BKN060 BKN080 32/21 A3013 RMK AO2 SLP202 T03220211
KSAV 091753Z 20006KT 10SM BKN046 32/20 A3015 RMK AO2 SLP209 T03170200 10328 20239 58007
KSAV 091653Z 21008KT 10SM SCT039 32/21 A3016 RMK AO2 SLP213 T03170206
KSAV 091553Z 20006KT 10SM FEW033 FEW250 31/22 A3017 RMK AO2 SLP216 T03060217